createdAt,value
2019-02-11T00:01:48.042Z,6.70
2019-02-11T00:04:17.349Z,6.70
2019-02-11T00:06:46.718Z,6.80
2019-02-11T00:09:15.879Z,6.80
2019-02-11T00:11:45.487Z,6.80
2019-02-11T00:14:14.643Z,6.80
2019-02-11T00:16:43.920Z,6.80
2019-02-11T00:19:13.068Z,6.70
2019-02-11T00:21:42.337Z,6.70
2019-02-11T00:24:11.704Z,6.70
2019-02-11T00:26:40.887Z,6.80
2019-02-11T00:29:10.259Z,6.80
2019-02-11T00:31:44.835Z,6.80
2019-02-11T00:34:13.988Z,6.80
2019-02-11T00:36:43.442Z,6.80
2019-02-11T00:39:12.513Z,6.80
2019-02-11T00:41:41.559Z,6.80
2019-02-11T00:44:12.390Z,6.80
2019-02-11T00:46:42.185Z,6.80
2019-02-11T00:49:14.739Z,6.80
2019-02-11T00:51:44.063Z,6.80
2019-02-11T00:54:13.389Z,6.80
2019-02-11T00:56:42.560Z,6.80
2019-02-11T00:59:11.723Z,6.80
2019-02-11T01:01:41.222Z,6.80
2019-02-11T01:04:10.635Z,6.80
2019-02-11T01:06:41.840Z,6.80
2019-02-11T01:09:11.112Z,6.90
2019-02-11T01:11:40.397Z,6.80
2019-02-11T01:14:09.520Z,6.80
2019-02-11T01:16:38.785Z,6.90
2019-02-11T01:19:08.525Z,6.90
2019-02-11T01:21:37.871Z,6.90
2019-02-11T01:24:07.060Z,6.90
2019-02-11T01:26:36.619Z,6.90
2019-02-11T01:29:05.920Z,6.90
2019-02-11T01:31:34.968Z,6.90
2019-02-11T01:34:04.135Z,6.80
2019-02-11T01:36:33.399Z,6.90
2019-02-11T01:39:04.687Z,6.90
2019-02-11T01:41:39.772Z,6.90
2019-02-11T01:44:09.348Z,6.90
2019-02-11T01:46:38.508Z,6.90
2019-02-11T01:49:08.101Z,6.90
2019-02-11T01:51:37.473Z,6.90
2019-02-11T01:54:06.707Z,6.90
2019-02-11T01:56:35.996Z,6.90
2019-02-11T01:59:05.180Z,6.90
2019-02-11T02:01:34.180Z,7.00
2019-02-11T02:04:03.397Z,7.00
2019-02-11T02:06:50.859Z,7.00
2019-02-11T02:09:20.067Z,6.90
2019-02-11T02:11:49.372Z,6.90
2019-02-11T02:14:18.545Z,6.90
2019-02-11T02:16:47.681Z,6.90
2019-02-11T02:19:17.104Z,6.90
2019-02-11T02:21:46.417Z,6.90
2019-02-11T02:24:16.286Z,6.90
2019-02-11T02:26:46.000Z,6.90
2019-02-11T02:29:15.645Z,6.90
2019-02-11T02:31:45.268Z,6.90
2019-02-11T02:34:16.058Z,6.90
2019-02-11T02:36:45.367Z,6.90
2019-02-11T02:39:14.785Z,6.90
2019-02-11T02:41:44.943Z,6.90
2019-02-11T02:44:14.249Z,6.90
2019-02-11T02:46:43.531Z,6.90
2019-02-11T02:49:12.801Z,6.90
2019-02-11T02:51:42.142Z,6.90
2019-02-11T02:54:11.273Z,6.90
2019-02-11T02:56:40.516Z,7.00
2019-02-11T02:59:09.722Z,7.00
2019-02-11T03:01:38.952Z,7.00
2019-02-11T03:04:08.143Z,6.90
2019-02-11T03:06:37.325Z,6.90
2019-02-11T03:09:06.598Z,6.90
2019-02-11T03:11:35.929Z,7.00
2019-02-11T03:14:06.293Z,6.90
2019-02-11T03:16:36.663Z,6.90
2019-02-11T03:19:06.052Z,7.00
2019-02-11T03:21:35.239Z,7.00
2019-02-11T03:24:04.667Z,6.90
2019-02-11T03:26:39.330Z,6.90
2019-02-11T03:29:10.507Z,6.90
2019-02-11T03:31:39.891Z,6.90
2019-02-11T03:34:09.220Z,6.90
2019-02-11T03:36:38.634Z,6.90
2019-02-11T03:39:08.186Z,6.90
2019-02-11T03:41:37.519Z,6.90
2019-02-11T03:44:14.921Z,6.90
2019-02-11T03:46:37.759Z,6.90
2019-02-11T03:49:07.232Z,6.90
2019-02-11T03:51:36.575Z,6.80
2019-02-11T03:54:06.094Z,6.90
2019-02-11T03:56:35.769Z,6.90
2019-02-11T03:59:05.625Z,6.90
2019-02-11T04:01:34.929Z,6.90
2019-02-11T04:04:04.307Z,6.90
2019-02-11T04:06:33.500Z,6.90
2019-02-11T04:09:04.643Z,6.90
2019-02-11T04:11:34.302Z,6.90
2019-02-11T04:14:03.723Z,6.90
2019-02-11T04:16:33.041Z,6.90
2019-02-11T04:19:02.261Z,6.90
2019-02-11T04:21:31.687Z,6.90
2019-02-11T04:24:01.135Z,6.90
2019-02-11T04:26:32.984Z,7.00
2019-02-11T04:29:02.667Z,7.00
2019-02-11T04:31:31.905Z,7.00
2019-02-11T04:34:01.125Z,6.90
2019-02-11T04:36:30.277Z,7.00
2019-02-11T04:38:59.348Z,7.00
2019-02-11T04:41:29.531Z,6.90
2019-02-11T04:43:58.606Z,6.90
2019-02-11T04:46:27.788Z,6.90
2019-02-11T04:48:56.988Z,6.90
2019-02-11T04:51:26.504Z,6.80
2019-02-11T04:53:55.603Z,6.80
2019-02-11T04:56:24.987Z,6.80
2019-02-11T04:58:54.092Z,6.80
2019-02-11T05:01:23.592Z,6.80
2019-02-11T05:03:54.034Z,6.80
2019-02-11T05:06:23.440Z,6.90
2019-02-11T05:08:52.698Z,6.80
2019-02-11T05:11:23.040Z,6.80
2019-02-11T05:13:52.235Z,6.80
2019-02-11T05:16:21.390Z,6.70
2019-02-11T05:18:50.841Z,6.70
2019-02-11T05:21:20.000Z,6.70
2019-02-11T05:23:49.235Z,6.70
2019-02-11T05:26:18.720Z,6.70
2019-02-11T05:28:47.806Z,6.70
2019-02-11T05:31:17.002Z,6.70
2019-02-11T05:33:46.247Z,6.70
2019-02-11T05:36:15.555Z,6.70
2019-02-11T05:38:44.743Z,6.70
2019-02-11T05:41:14.408Z,6.70
2019-02-11T05:43:43.986Z,6.70
2019-02-11T05:46:13.296Z,6.70
2019-02-11T05:48:42.545Z,6.70
2019-02-11T05:51:11.682Z,6.70
2019-02-11T05:53:41.034Z,6.80
2019-02-11T05:56:10.446Z,6.80
2019-02-11T05:58:39.749Z,6.80
2019-02-11T06:03:57.144Z,6.80
2019-02-11T06:06:26.365Z,6.80
2019-02-11T06:08:56.178Z,6.80
2019-02-11T06:11:25.521Z,6.80
2019-02-11T06:13:54.651Z,6.80
2019-02-11T06:16:24.291Z,6.70
2019-02-11T06:18:53.348Z,6.70
2019-02-11T06:21:22.422Z,6.60
2019-02-11T06:23:51.999Z,6.60
2019-02-11T06:26:22.850Z,6.60
2019-02-11T06:28:52.137Z,6.60
2019-02-11T06:31:21.581Z,6.60
2019-02-11T06:33:56.581Z,6.60
2019-02-11T06:36:25.892Z,6.60
2019-02-11T06:38:55.311Z,6.60
2019-02-11T06:41:24.690Z,6.60
2019-02-11T06:43:54.705Z,6.60
2019-02-11T06:46:23.881Z,6.60
2019-02-11T06:48:52.997Z,6.60
2019-02-11T06:51:22.183Z,6.60
2019-02-11T06:53:51.360Z,6.60
2019-02-11T06:56:20.556Z,6.50
2019-02-11T06:58:49.764Z,6.50
2019-02-11T07:01:19.134Z,6.50
2019-02-11T07:03:48.230Z,6.50
2019-02-11T07:06:17.443Z,6.50
2019-02-11T07:08:46.667Z,6.50
2019-02-11T07:11:16.204Z,6.60
2019-02-11T07:13:45.487Z,6.60
2019-02-11T07:16:14.911Z,6.60
2019-02-11T07:18:44.197Z,6.60
2019-02-11T07:21:13.299Z,6.60
2019-02-11T07:23:42.571Z,6.60
2019-02-11T07:26:11.957Z,6.70
2019-02-11T07:28:41.398Z,6.70
2019-02-11T07:31:15.262Z,6.60
2019-02-11T07:33:45.803Z,6.60
2019-02-11T07:36:15.312Z,6.60
2019-02-11T07:38:44.823Z,6.60
2019-02-11T07:41:14.443Z,6.60
2019-02-11T07:43:57.284Z,6.70
2019-02-11T07:46:39.675Z,6.70
2019-02-11T07:49:09.060Z,6.70
2019-02-11T07:51:42.315Z,6.80
2019-02-11T07:54:09.309Z,6.80
2019-02-11T07:56:38.622Z,6.80
2019-02-11T07:59:08.041Z,6.80
2019-02-11T08:01:37.232Z,6.80
2019-02-11T08:04:06.579Z,6.80
2019-02-11T08:06:36.087Z,6.80
2019-02-11T08:09:08.131Z,6.80
2019-02-11T08:11:37.488Z,6.80
2019-02-11T08:14:07.040Z,6.80
2019-02-11T08:16:36.340Z,6.80
2019-02-11T08:19:05.760Z,6.90
2019-02-11T08:21:35.295Z,6.80
2019-02-11T08:24:04.696Z,6.80
2019-02-11T08:26:33.956Z,6.90
2019-02-11T08:29:03.291Z,6.90
2019-02-11T08:31:32.568Z,6.90
2019-02-11T08:34:02.231Z,6.90
2019-02-11T08:36:31.490Z,7.00
2019-02-11T08:39:02.148Z,7.00
2019-02-11T08:41:31.525Z,7.00
2019-02-11T08:44:01.131Z,7.00
2019-02-11T08:46:30.439Z,7.00
2019-02-11T08:48:59.836Z,7.10
2019-02-11T08:51:29.126Z,7.10
2019-02-11T08:53:58.392Z,7.10
2019-02-11T08:56:29.343Z,7.10
2019-02-11T08:58:58.816Z,7.10
2019-02-11T09:01:28.921Z,7.10
2019-02-11T09:04:00.021Z,7.10
2019-02-11T09:06:29.429Z,7.10
2019-02-11T09:08:59.183Z,7.10
2019-02-11T09:11:28.719Z,7.10
2019-02-11T09:13:58.171Z,7.20
2019-02-11T09:16:28.042Z,7.20
2019-02-11T09:18:57.323Z,7.20
2019-02-11T09:21:26.656Z,7.20
2019-02-11T09:23:56.010Z,7.30
2019-02-11T09:26:25.361Z,7.30
2019-02-11T09:28:54.717Z,7.30
2019-02-11T09:31:24.134Z,7.40
2019-02-11T09:33:53.527Z,7.40
2019-02-11T09:36:23.007Z,7.50
2019-02-11T09:38:52.264Z,7.50
2019-02-11T09:41:21.529Z,7.50
2019-02-11T09:43:50.843Z,7.50
2019-02-11T09:46:20.928Z,7.50
2019-02-11T09:48:50.171Z,7.50
2019-02-11T09:51:19.704Z,7.50
2019-02-11T09:53:48.916Z,7.50
2019-02-11T09:56:18.020Z,7.60
2019-02-11T09:58:47.523Z,7.70
2019-02-11T10:01:16.687Z,7.80
2019-02-11T10:03:46.175Z,7.90
2019-02-11T10:06:15.537Z,7.80
2019-02-11T10:08:44.911Z,7.90
2019-02-11T10:11:14.277Z,8.00
2019-02-11T10:13:43.650Z,8.00
2019-02-11T10:16:12.947Z,8.00
2019-02-11T10:18:42.161Z,8.00
2019-02-11T10:21:11.437Z,8.00
2019-02-11T10:23:41.054Z,8.00
2019-02-11T10:26:10.461Z,8.00
2019-02-11T10:28:39.816Z,8.10
2019-02-11T10:31:09.856Z,8.10
2019-02-11T10:33:58.243Z,8.10
2019-02-11T10:36:27.952Z,8.10
2019-02-11T10:38:57.316Z,8.10
2019-02-11T10:41:26.745Z,8.10
2019-02-11T10:43:56.249Z,8.00
2019-02-11T10:46:25.511Z,7.90
2019-02-11T10:48:54.813Z,7.90
2019-02-11T10:51:24.085Z,7.90
2019-02-11T10:53:53.464Z,7.80
2019-02-11T10:56:23.064Z,7.80
2019-02-11T10:58:52.573Z,7.90
2019-02-11T11:01:23.737Z,7.90
2019-02-11T11:03:53.001Z,8.00
2019-02-11T11:06:22.417Z,8.10
2019-02-11T11:08:51.703Z,8.10
2019-02-11T11:11:22.016Z,8.10
2019-02-11T11:13:51.375Z,8.10
2019-02-11T11:16:20.598Z,8.10
2019-02-11T11:18:49.764Z,8.20
2019-02-11T11:21:19.179Z,8.30
2019-02-11T11:23:48.528Z,8.30
2019-02-11T11:26:18.017Z,8.40
2019-02-11T11:28:47.231Z,8.50
2019-02-11T11:31:18.271Z,8.50
2019-02-11T11:33:47.740Z,8.50
2019-02-11T11:36:16.993Z,8.40
2019-02-11T11:38:46.316Z,8.30
2019-02-11T11:41:15.625Z,8.30
2019-02-11T11:43:44.893Z,8.40
2019-02-11T11:46:14.201Z,8.50
2019-02-11T11:48:45.491Z,8.50
2019-02-11T11:51:14.630Z,8.70
2019-02-11T11:53:43.965Z,8.70
2019-02-11T11:56:14.674Z,8.70
2019-02-11T11:58:44.426Z,8.70
2019-02-11T12:01:18.915Z,8.80
2019-02-11T12:03:45.657Z,8.70
2019-02-11T12:06:15.171Z,8.70
2019-02-11T12:08:44.649Z,8.70
2019-02-11T12:11:14.022Z,8.70
2019-02-11T12:13:43.544Z,8.80
2019-02-11T12:16:12.865Z,8.80
2019-02-11T12:18:42.148Z,8.90
2019-02-11T12:21:11.497Z,9.00
2019-02-11T12:23:46.540Z,8.90
2019-02-11T12:26:21.250Z,8.90
2019-02-11T12:28:48.288Z,8.90
2019-02-11T12:31:17.770Z,9.00
2019-02-11T12:33:47.638Z,9.00
2019-02-11T12:36:17.033Z,8.90
2019-02-11T12:38:46.715Z,8.90
2019-02-11T12:41:17.549Z,8.90
2019-02-11T12:43:47.068Z,9.10
2019-02-11T12:46:16.837Z,9.10
2019-02-11T12:48:49.246Z,9.10
2019-02-11T12:51:20.734Z,9.10
2019-02-11T12:53:56.154Z,9.10
2019-02-11T12:59:14.115Z,9.00
2019-02-11T13:01:46.839Z,8.90
2019-02-11T13:04:16.303Z,8.80
2019-02-11T13:06:46.031Z,8.70
2019-02-11T13:09:15.591Z,8.70
2019-02-11T13:11:46.738Z,8.80
2019-02-11T13:14:16.070Z,8.90
2019-02-11T13:16:45.357Z,9.00
2019-02-11T13:19:14.693Z,9.20
2019-02-11T13:21:43.939Z,9.30
2019-02-11T13:24:13.410Z,9.40
2019-02-11T13:26:42.803Z,9.40
2019-02-11T13:29:12.118Z,9.40
2019-02-11T13:31:41.391Z,9.40
2019-02-11T13:34:10.636Z,9.30
2019-02-11T13:36:42.193Z,9.30
2019-02-11T13:39:11.612Z,9.20
2019-02-11T13:41:46.983Z,9.10
2019-02-11T13:44:16.413Z,9.10
2019-02-11T13:46:47.306Z,9.10
2019-02-11T13:49:17.249Z,9.10
2019-02-11T13:51:46.914Z,9.10
2019-02-11T13:54:20.392Z,9.10
2019-02-11T13:57:17.891Z,9.10
2019-02-11T13:59:34.466Z,9.10
2019-02-11T14:02:04.013Z,9.20
2019-02-11T14:04:33.279Z,9.10
2019-02-11T14:07:09.153Z,9.10
2019-02-11T14:09:40.503Z,9.00
2019-02-11T14:12:09.681Z,9.00
2019-02-11T14:14:39.772Z,9.00
2019-02-11T14:17:08.919Z,8.90
2019-02-11T14:19:38.215Z,8.80
2019-02-11T14:22:07.342Z,8.90
2019-02-11T14:24:36.546Z,9.00
2019-02-11T14:27:05.814Z,9.00
2019-02-11T14:29:35.643Z,9.10
2019-02-11T14:32:04.768Z,9.10
2019-02-11T14:34:33.920Z,9.00
2019-02-11T14:37:03.024Z,9.00
2019-02-11T14:39:33.529Z,8.90
2019-02-11T14:42:04.307Z,8.90
2019-02-11T14:44:34.923Z,8.80
2019-02-11T14:47:05.576Z,8.80
2019-02-11T14:49:34.859Z,8.80
2019-02-11T14:52:10.015Z,8.80
2019-02-11T14:54:39.611Z,8.80
2019-02-11T14:57:08.716Z,8.80
2019-02-11T14:59:38.205Z,8.80
2019-02-11T15:02:07.447Z,8.80
2019-02-11T15:04:36.501Z,8.80
2019-02-11T15:07:05.817Z,8.70
2019-02-11T15:09:35.294Z,8.70
2019-02-11T15:12:04.609Z,8.70
2019-02-11T15:14:35.525Z,8.70
2019-02-11T15:17:04.881Z,8.60
2019-02-11T15:19:34.191Z,8.60
2019-02-11T15:22:03.360Z,8.60
2019-02-11T15:24:32.566Z,8.60
2019-02-11T15:27:01.972Z,8.60
2019-02-11T15:29:31.394Z,8.50
2019-02-11T15:32:00.880Z,8.60
2019-02-11T15:34:30.161Z,8.60
2019-02-11T15:36:59.323Z,8.50
2019-02-11T15:39:50.797Z,8.50
2019-02-11T15:42:37.516Z,8.50
2019-02-11T15:45:03.828Z,8.40
2019-02-11T15:47:32.997Z,8.40
2019-02-11T15:50:02.510Z,8.30
2019-02-11T15:52:33.177Z,8.30
2019-02-11T15:55:02.767Z,8.30
2019-02-11T16:00:38.268Z,8.30
2019-02-11T16:03:10.820Z,8.20
2019-02-11T16:08:14.115Z,8.20
2019-02-11T16:10:43.470Z,8.30
2019-02-11T16:13:12.871Z,8.30
2019-02-11T16:15:42.041Z,8.20
2019-02-11T16:18:12.311Z,8.20
2019-02-11T16:20:48.269Z,8.20
2019-02-11T16:23:18.616Z,8.20
2019-02-11T16:25:52.050Z,8.20
2019-02-11T16:28:24.427Z,8.20
2019-02-11T16:30:57.619Z,8.20
2019-02-11T16:33:28.598Z,8.30
2019-02-11T16:36:00.683Z,8.20
2019-02-11T16:38:30.113Z,8.20
2019-02-11T16:41:02.998Z,8.20
2019-02-11T16:43:32.297Z,8.20
2019-02-11T16:46:01.804Z,8.20
2019-02-11T16:48:34.225Z,8.10
2019-02-11T16:51:04.208Z,8.10
2019-02-11T16:53:33.991Z,8.00
2019-02-11T16:56:03.409Z,8.00
2019-02-11T16:58:47.655Z,7.90
2019-02-11T17:01:14.369Z,7.90
2019-02-11T17:03:43.783Z,7.90
2019-02-11T17:06:13.048Z,7.90
2019-02-11T17:08:42.503Z,7.90
2019-02-11T17:11:11.744Z,7.80
2019-02-11T17:13:41.301Z,7.80
2019-02-11T17:16:11.755Z,7.90
2019-02-11T17:18:43.118Z,7.80
2019-02-11T17:21:13.704Z,7.80
2019-02-11T17:23:43.185Z,7.80
2019-02-11T17:26:12.474Z,7.80
2019-02-11T17:28:42.484Z,7.70
2019-02-11T17:31:15.507Z,7.70
2019-02-11T17:33:47.782Z,7.70
2019-02-11T17:36:17.785Z,7.80
2019-02-11T17:38:49.613Z,7.70
2019-02-11T17:41:19.144Z,7.70
2019-02-11T17:43:48.285Z,7.70
2019-02-11T17:46:17.445Z,7.80
2019-02-11T17:49:05.961Z,7.70
2019-02-11T17:51:35.585Z,7.70
2019-02-11T17:54:17.579Z,7.70
2019-02-11T17:57:27.106Z,7.70
2019-02-11T17:59:52.306Z,7.60
2019-02-11T18:02:37.631Z,7.60
2019-02-11T18:05:06.431Z,7.60
2019-02-11T18:07:37.249Z,7.60
2019-02-11T18:10:15.390Z,7.50
2019-02-11T18:12:47.202Z,7.50
2019-02-11T18:15:37.199Z,7.50
2019-02-11T18:18:08.266Z,7.50
2019-02-11T18:21:18.456Z,7.50
2019-02-11T18:23:47.795Z,7.50
2019-02-11T18:26:18.908Z,7.50
2019-02-11T18:29:11.662Z,7.50
2019-02-11T18:31:40.990Z,7.50
2019-02-11T18:34:10.290Z,7.60
2019-02-11T18:37:17.935Z,7.60
2019-02-11T18:40:12.861Z,7.60
2019-02-11T18:42:43.428Z,7.60
2019-02-11T18:45:13.351Z,7.60
2019-02-11T18:47:42.556Z,7.50
2019-02-11T18:50:12.743Z,7.50
2019-02-11T18:52:42.092Z,7.50
2019-02-11T18:55:12.221Z,7.50
2019-02-11T18:57:46.295Z,7.50
2019-02-11T19:00:19.292Z,7.40
2019-02-11T19:02:49.091Z,7.40
2019-02-11T19:05:37.938Z,7.50
2019-02-11T19:08:12.894Z,7.50
2019-02-11T19:10:42.634Z,7.40
2019-02-11T19:13:12.472Z,7.40
2019-02-11T19:16:01.247Z,7.40
2019-02-11T19:18:30.636Z,7.40
2019-02-11T19:21:00.656Z,7.50
2019-02-11T19:23:30.205Z,7.50
2019-02-11T19:26:00.658Z,7.50
2019-02-11T19:31:20.705Z,7.50
2019-02-11T19:33:50.696Z,7.40
2019-02-11T19:36:28.449Z,7.50
2019-02-11T19:39:00.421Z,7.50
2019-02-11T19:41:31.145Z,7.50
2019-02-11T19:44:06.156Z,7.50
2019-02-11T19:46:40.946Z,7.50
2019-02-11T19:49:10.449Z,7.50
2019-02-11T19:51:39.914Z,7.50
2019-02-11T19:54:09.580Z,7.50
2019-02-11T19:56:38.898Z,7.50
2019-02-11T19:59:08.263Z,7.70
2019-02-11T20:01:37.639Z,7.80
2019-02-11T20:04:07.904Z,7.80
2019-02-11T20:06:37.556Z,7.80
2019-02-11T20:09:07.243Z,7.80
2019-02-11T20:11:37.934Z,7.70
2019-02-11T20:14:07.464Z,7.70
2019-02-11T20:16:36.815Z,7.60
2019-02-11T20:19:06.457Z,7.60
2019-02-11T20:21:35.624Z,7.60
2019-02-11T20:24:05.788Z,7.60
2019-02-11T20:26:35.027Z,7.60
2019-02-11T20:29:04.274Z,7.60
2019-02-11T20:31:34.325Z,7.60
2019-02-11T20:34:03.717Z,7.60
2019-02-11T20:36:33.560Z,7.60
2019-02-11T20:39:04.820Z,7.50
2019-02-11T20:41:34.001Z,7.50
2019-02-11T20:44:03.432Z,7.50
2019-02-11T20:46:33.079Z,7.50
2019-02-11T20:49:03.820Z,7.50
2019-02-11T20:51:33.241Z,7.50
2019-02-11T20:54:05.630Z,7.50
2019-02-11T20:56:35.009Z,7.40
2019-02-11T20:59:04.324Z,7.50
2019-02-11T21:01:33.562Z,7.40
2019-02-11T21:04:02.889Z,7.50
2019-02-11T21:06:35.468Z,7.50
2019-02-11T21:09:09.362Z,7.40
2019-02-11T21:11:38.792Z,7.40
2019-02-11T21:14:08.461Z,7.40
2019-02-11T21:16:37.851Z,7.40
2019-02-11T21:19:08.298Z,7.40
2019-02-11T21:21:37.970Z,7.40
2019-02-11T21:24:07.434Z,7.40
2019-02-11T21:26:36.864Z,7.50
2019-02-11T21:29:08.529Z,7.50
2019-02-11T21:31:38.475Z,7.40
2019-02-11T21:34:10.766Z,7.40
2019-02-11T21:36:40.204Z,7.40
2019-02-11T21:39:31.560Z,7.40
2019-02-11T21:42:05.168Z,7.30
2019-02-11T21:44:34.556Z,7.40
2019-02-11T21:47:03.944Z,7.40
2019-02-11T21:49:33.356Z,7.30
2019-02-11T21:52:02.742Z,7.30
2019-02-11T21:54:33.443Z,7.30
2019-02-11T21:57:02.774Z,7.20
2019-02-11T21:59:33.525Z,7.20
2019-02-11T22:02:02.848Z,7.30
2019-02-11T22:04:32.243Z,7.30
2019-02-11T22:07:04.169Z,7.30
2019-02-11T22:09:42.393Z,7.30
2019-02-11T22:12:11.984Z,7.30
2019-02-11T22:14:41.320Z,7.30
2019-02-11T22:17:10.573Z,7.30
2019-02-11T22:19:43.120Z,7.30
2019-02-11T22:22:12.537Z,7.30
2019-02-11T22:24:41.925Z,7.20
2019-02-11T22:27:11.302Z,7.10
2019-02-11T22:29:40.559Z,7.10
2019-02-11T22:32:09.721Z,7.10
2019-02-11T22:34:39.037Z,7.00
2019-02-11T22:37:08.416Z,7.10
2019-02-11T22:39:37.810Z,7.00
2019-02-11T22:42:07.019Z,7.00
2019-02-11T22:44:36.334Z,7.00
2019-02-11T22:47:05.743Z,7.00
2019-02-11T22:49:35.125Z,7.00
2019-02-11T22:52:04.431Z,7.00
2019-02-11T22:54:43.690Z,7.00
2019-02-11T22:57:13.142Z,7.10
2019-02-11T22:59:42.550Z,7.10
2019-02-11T23:02:11.760Z,7.10
2019-02-11T23:04:41.163Z,7.10
2019-02-11T23:07:10.561Z,7.00
2019-02-11T23:09:40.053Z,7.00
2019-02-11T23:12:09.346Z,7.00
2019-02-11T23:14:39.870Z,7.10
2019-02-11T23:17:09.790Z,7.10
2019-02-11T23:19:39.573Z,7.10
2019-02-11T23:22:08.958Z,7.10
2019-02-11T23:24:38.248Z,7.10
2019-02-11T23:27:07.539Z,7.20
2019-02-11T23:29:37.429Z,7.10
2019-02-11T23:32:06.788Z,7.10
2019-02-11T23:34:35.863Z,7.10
2019-02-11T23:43:21.974Z,7.10
2019-02-11T23:45:51.157Z,7.00
2019-02-11T23:48:20.452Z,6.90
2019-02-11T23:50:49.924Z,6.80
2019-02-11T23:53:19.631Z,6.80
2019-02-11T23:55:48.853Z,6.90
2019-02-11T23:58:18.264Z,6.90
